CheckWX is a tool to help pilots better visualize weather data.  It is not intended as a substitute for an official pre-flight weather briefing.

01:51:40 UTC

KMCF TAF
Macdill AFB Airport
Tampa, Florida, USA
TAF KMCF 190000Z 1900/2006 03009KT 9000 -DZ BKN030 QNH3004INS BECMG 1905/1906 03012KT 9000 -SHRA BKN025 QNH3009INS BECMG 1912/1913 06009KT 6000 -RA SCT010 BKN025 QNH3009INS BECMG 1919/1920 06012KT 9999 NSW SCT020 BKN070 QNH3009INS TX20/1921Z TN13/1911Z

Mar-19@
00:00 UTC

Mar-19 @ 00:00 UTC

Mar-19@
05:00 UTC

Mar-19 @ 05:00 UTC

TAF KMCF 190000Z 1900/2006 03009KT 9000 -DZ BKN030 QNH3004INS
Wind
  • 030° at 9 KTS
Conditions
Light Drizzle
Cloud Levels
  • Broken at 3,000' AGL

Mar-19@
05:00 UTC

Mar-19 @ 05:00 UTC

Mar-19@
12:00 UTC

Mar-19 @ 12:00 UTC

BECMG 1905/1906 03012KT 9000 -SHRA BKN025 QNH3009INS

Becoming

Becoming Conditions expected by Tue, Mar 19, 2019 @ 06:00 UTC

Wind
  • 030° at 12 KTS
Conditions
Light Rain
Cloud Levels
  • Broken at 2,500' AGL

Mar-19@
12:00 UTC

Mar-19 @ 12:00 UTC

Mar-19@
19:00 UTC

Mar-19 @ 19:00 UTC

BECMG 1912/1913 06009KT 6000 -RA SCT010 BKN025 QNH3009INS

Becoming

Becoming Conditions expected by Tue, Mar 19, 2019 @ 13:00 UTC

Wind
  • 060° at 9 KTS
Conditions
Light Rain
Cloud Levels
  • Scattered at 1,000' AGL
  • Broken at 2,500' AGL

Mar-19@
19:00 UTC

Mar-19 @ 19:00 UTC

Mar-20@
06:00 UTC

Mar-20 @ 06:00 UTC

BECMG 1919/1920 06012KT 9999 NSW SCT020 BKN070 QNH3009INS TX20/1921Z TN13/1911Z

Becoming

Becoming Conditions expected by Tue, Mar 19, 2019 @ 20:00 UTC

Wind
  • 060° at 12 KTS
Conditions
No significant weather
Cloud Levels
  • Scattered at 2,000' AGL
  • Broken at 7,000' AGL